sensor_id;sensor_type;location;lat;lon;timestamp;P1;durP1;ratioP1;P2;durP2;ratioP2
1026;SDS011;502;48.746;9.214;2023-09-18T00:01:50;5.20;;;4.43;;
1026;SDS011;502;48.746;9.214;2023-09-18T00:04:16;4.27;;;3.87;;
1026;SDS011;502;48.746;9.214;2023-09-18T00:06:44;5.13;;;4.17;;
1026;SDS011;502;48.746;9.214;2023-09-18T00:09:11;5.10;;;3.70;;
1026;SDS011;502;48.746;9.214;2023-09-18T00:11:39;4.13;;;3.60;;
1026;SDS011;502;48.746;9.214;2023-09-18T00:14:05;4.10;;;3.20;;
1026;SDS011;502;48.746;9.214;2023-09-18T00:16:32;4.43;;;4.03;;
1026;SDS011;502;48.746;9.214;2023-09-18T00:18:59;4.87;;;3.80;;
1026;SDS011;502;48.746;9.214;2023-09-18T00:21:26;4.60;;;3.90;;
1026;SDS011;502;48.746;9.214;2023-09-18T00:23:56;4.17;;;3.70;;
1026;SDS011;502;48.746;9.214;2023-09-18T00:26:24;5.37;;;3.70;;
1026;SDS011;502;48.746;9.214;2023-09-18T00:28:52;4.27;;;3.50;;
1026;SDS011;502;48.746;9.214;2023-09-18T00:31:18;4.00;;;3.60;;
1026;SDS011;502;48.746;9.214;2023-09-18T00:33:46;3.87;;;3.57;;
1026;SDS011;502;48.746;9.214;2023-09-18T00:36:13;4.33;;;3.93;;
1026;SDS011;502;48.746;9.214;2023-09-18T00:38:39;4.20;;;3.70;;
1026;SDS011;502;48.746;9.214;2023-09-18T00:41:07;4.00;;;3.37;;
1026;SDS011;502;48.746;9.214;2023-09-18T00:43:34;3.83;;;3.40;;
1026;SDS011;502;48.746;9.214;2023-09-18T00:46:01;4.13;;;3.73;;
1026;SDS011;502;48.746;9.214;2023-09-18T00:48:27;4.27;;;3.27;;
1026;SDS011;502;48.746;9.214;2023-09-18T00:50:54;4.20;;;3.80;;
1026;SDS011;502;48.746;9.214;2023-09-18T00:53:23;3.93;;;3.57;;
1026;SDS011;502;48.746;9.214;2023-09-18T00:55:50;3.50;;;3.20;;
1026;SDS011;502;48.746;9.214;2023-09-18T00:58:18;4.30;;;3.60;;
1026;SDS011;502;48.746;9.214;2023-09-18T01:00:45;4.67;;;3.80;;
1026;SDS011;502;48.746;9.214;2023-09-18T01:03:11;3.90;;;3.50;;
1026;SDS011;502;48.746;9.214;2023-09-18T01:05:38;4.03;;;3.63;;
1026;SDS011;502;48.746;9.214;2023-09-18T01:08:04;3.90;;;3.50;;
1026;SDS011;502;48.746;9.214;2023-09-18T01:10:32;4.83;;;4.00;;
1026;SDS011;502;48.746;9.214;2023-09-18T01:13:02;4.73;;;3.83;;
1026;SDS011;502;48.746;9.214;2023-09-18T01:15:33;3.60;;;3.30;;
1026;SDS011;502;48.746;9.214;2023-09-18T01:18:03;5.30;;;3.80;;
1026;SDS011;502;48.746;9.214;2023-09-18T01:20:29;3.30;;;3.00;;
1026;SDS011;502;48.746;9.214;2023-09-18T01:22:57;3.93;;;3.50;;
1026;SDS011;502;48.746;9.214;2023-09-18T01:25:24;4.17;;;3.77;;
1026;SDS011;502;48.746;9.214;2023-09-18T01:27:51;4.03;;;3.20;;
1026;SDS011;502;48.746;9.214;2023-09-18T01:30:17;3.67;;;3.27;;
1026;SDS011;502;48.746;9.214;2023-09-18T01:32:44;3.80;;;3.47;;
1026;SDS011;502;48.746;9.214;2023-09-18T01:35:12;4.10;;;3.70;;
1026;SDS011;502;48.746;9.214;2023-09-18T01:37:39;5.53;;;3.80;;
1026;SDS011;502;48.746;9.214;2023-09-18T01:40:07;3.57;;;3.00;;
1026;SDS011;502;48.746;9.214;2023-09-18T01:42:36;3.60;;;3.10;;
1026;SDS011;502;48.746;9.214;2023-09-18T01:45:03;4.67;;;3.20;;
1026;SDS011;502;48.746;9.214;2023-09-18T01:47:30;4.20;;;3.50;;
1026;SDS011;502;48.746;9.214;2023-09-18T01:49:57;3.80;;;3.30;;
1026;SDS011;502;48.746;9.214;2023-09-18T01:52:24;4.10;;;3.70;;
1026;SDS011;502;48.746;9.214;2023-09-18T01:54:50;4.33;;;3.30;;
1026;SDS011;502;48.746;9.214;2023-09-18T01:57:18;4.70;;;3.30;;
1026;SDS011;502;48.746;9.214;2023-09-18T01:59:45;5.33;;;3.20;;
1026;SDS011;502;48.746;9.214;2023-09-18T02:02:11;3.97;;;3.17;;
1026;SDS011;502;48.746;9.214;2023-09-18T02:04:38;3.20;;;2.70;;
1026;SDS011;502;48.746;9.214;2023-09-18T02:07:05;4.60;;;3.30;;
1026;SDS011;502;48.746;9.214;2023-09-18T02:09:32;4.27;;;3.23;;
1026;SDS011;502;48.746;9.214;2023-09-18T02:11:58;4.67;;;2.90;;
1026;SDS011;502;48.746;9.214;2023-09-18T02:14:26;6.73;;;3.40;;
1026;SDS011;502;48.746;9.214;2023-09-18T02:16:56;7.17;;;3.30;;
1026;SDS011;502;48.746;9.214;2023-09-18T02:19:22;5.90;;;3.00;;
1026;SDS011;502;48.746;9.214;2023-09-18T02:21:49;6.60;;;3.17;;
1026;SDS011;502;48.746;9.214;2023-09-18T02:24:16;7.17;;;3.17;;
1026;SDS011;502;48.746;9.214;2023-09-18T02:26:42;4.80;;;3.37;;
1026;SDS011;502;48.746;9.214;2023-09-18T02:29:10;4.70;;;3.00;;
1026;SDS011;502;48.746;9.214;2023-09-18T02:31:40;7.70;;;2.77;;
1026;SDS011;502;48.746;9.214;2023-09-18T02:34:06;7.00;;;2.80;;
1026;SDS011;502;48.746;9.214;2023-09-18T02:36:34;3.77;;;2.83;;
1026;SDS011;502;48.746;9.214;2023-09-18T02:39:00;9.20;;;2.53;;
1026;SDS011;502;48.746;9.214;2023-09-18T02:41:27;6.70;;;2.57;;
1026;SDS011;502;48.746;9.214;2023-09-18T02:43:54;4.30;;;2.30;;
1026;SDS011;502;48.746;9.214;2023-09-18T02:46:21;7.40;;;2.20;;
1026;SDS011;502;48.746;9.214;2023-09-18T02:48:48;6.90;;;1.93;;
1026;SDS011;502;48.746;9.214;2023-09-18T02:51:15;6.07;;;2.10;;
1026;SDS011;502;48.746;9.214;2023-09-18T02:53:42;8.20;;;2.20;;
1026;SDS011;502;48.746;9.214;2023-09-18T02:56:09;10.60;;;2.60;;
1026;SDS011;502;48.746;9.214;2023-09-18T02:58:37;7.83;;;3.00;;
1026;SDS011;502;48.746;9.214;2023-09-18T03:01:03;4.83;;;2.80;;
1026;SDS011;502;48.746;9.214;2023-09-18T03:03:31;4.43;;;2.27;;
1026;SDS011;502;48.746;9.214;2023-09-18T03:06:03;7.20;;;2.40;;
1026;SDS011;502;48.746;9.214;2023-09-18T03:08:31;7.40;;;3.13;;
1026;SDS011;502;48.746;9.214;2023-09-18T03:10:59;8.20;;;2.60;;
1026;SDS011;502;48.746;9.214;2023-09-18T03:13:26;8.10;;;2.40;;
1026;SDS011;502;48.746;9.214;2023-09-18T03:15:53;8.13;;;2.80;;
1026;SDS011;502;48.746;9.214;2023-09-18T03:18:20;11.17;;;2.80;;
1026;SDS011;502;48.746;9.214;2023-09-18T03:20:46;6.40;;;2.67;;
1026;SDS011;502;48.746;9.214;2023-09-18T03:23:14;6.93;;;3.03;;
1026;SDS011;502;48.746;9.214;2023-09-18T03:25:41;7.07;;;3.13;;
1026;SDS011;502;48.746;9.214;2023-09-18T03:28:08;10.40;;;2.50;;
1026;SDS011;502;48.746;9.214;2023-09-18T03:30:34;7.90;;;3.60;;
1026;SDS011;502;48.746;9.214;2023-09-18T03:33:02;7.60;;;2.80;;
1026;SDS011;502;48.746;9.214;2023-09-18T03:35:30;7.20;;;3.10;;
1026;SDS011;502;48.746;9.214;2023-09-18T03:37:58;4.30;;;2.87;;
1026;SDS011;502;48.746;9.214;2023-09-18T03:40:26;7.37;;;2.83;;
1026;SDS011;502;48.746;9.214;2023-09-18T03:42:52;12.50;;;3.27;;
1026;SDS011;502;48.746;9.214;2023-09-18T03:45:19;9.83;;;3.40;;
1026;SDS011;502;48.746;9.214;2023-09-18T03:47:47;6.37;;;3.27;;
1026;SDS011;502;48.746;9.214;2023-09-18T03:50:15;5.83;;;2.67;;
1026;SDS011;502;48.746;9.214;2023-09-18T03:52:42;4.53;;;2.00;;
1026;SDS011;502;48.746;9.214;2023-09-18T03:55:08;5.50;;;3.00;;
1026;SDS011;502;48.746;9.214;2023-09-18T03:57:36;3.90;;;2.00;;
1026;SDS011;502;48.746;9.214;2023-09-18T04:00:05;7.73;;;2.60;;
1026;SDS011;502;48.746;9.214;2023-09-18T04:02:39;5.20;;;2.57;;
1026;SDS011;502;48.746;9.214;2023-09-18T04:05:06;4.93;;;2.37;;
1026;SDS011;502;48.746;9.214;2023-09-18T04:07:33;4.80;;;2.50;;
1026;SDS011;502;48.746;9.214;2023-09-18T04:10:00;9.17;;;2.33;;
1026;SDS011;502;48.746;9.214;2023-09-18T04:12:27;3.40;;;2.57;;
1026;SDS011;502;48.746;9.214;2023-09-18T04:14:55;5.57;;;2.37;;
1026;SDS011;502;48.746;9.214;2023-09-18T04:17:22;3.30;;;2.10;;
1026;SDS011;502;48.746;9.214;2023-09-18T04:19:48;7.73;;;2.50;;
1026;SDS011;502;48.746;9.214;2023-09-18T04:22:15;4.53;;;2.53;;
1026;SDS011;502;48.746;9.214;2023-09-18T04:24:41;7.17;;;2.83;;
1026;SDS011;502;48.746;9.214;2023-09-18T04:27:09;5.40;;;2.97;;
1026;SDS011;502;48.746;9.214;2023-09-18T04:29:35;5.10;;;2.50;;
1026;SDS011;502;48.746;9.214;2023-09-18T04:32:04;9.13;;;2.60;;
1026;SDS011;502;48.746;9.214;2023-09-18T04:34:32;5.97;;;2.67;;
1026;SDS011;502;48.746;9.214;2023-09-18T04:37:00;5.93;;;2.73;;
1026;SDS011;502;48.746;9.214;2023-09-18T04:39:29;6.10;;;2.47;;
1026;SDS011;502;48.746;9.214;2023-09-18T04:41:59;6.53;;;2.30;;
1026;SDS011;502;48.746;9.214;2023-09-18T04:44:29;5.50;;;2.57;;
1026;SDS011;502;48.746;9.214;2023-09-18T04:46:56;5.97;;;2.83;;
1026;SDS011;502;48.746;9.214;2023-09-18T04:49:24;8.90;;;2.53;;
1026;SDS011;502;48.746;9.214;2023-09-18T04:51:51;5.77;;;2.67;;
1026;SDS011;502;48.746;9.214;2023-09-18T04:54:18;5.37;;;2.53;;
1026;SDS011;502;48.746;9.214;2023-09-18T04:56:44;5.60;;;2.63;;
1026;SDS011;502;48.746;9.214;2023-09-18T04:59:11;4.80;;;2.60;;
1026;SDS011;502;48.746;9.214;2023-09-18T05:01:38;4.50;;;2.50;;
1026;SDS011;502;48.746;9.214;2023-09-18T05:04:05;6.10;;;2.67;;
1026;SDS011;502;48.746;9.214;2023-09-18T05:06:33;9.13;;;3.13;;
1026;SDS011;502;48.746;9.214;2023-09-18T05:08:59;6.40;;;2.50;;
1026;SDS011;502;48.746;9.214;2023-09-18T05:11:26;7.80;;;3.10;;
1026;SDS011;502;48.746;9.214;2023-09-18T05:13:52;8.73;;;2.87;;
1026;SDS011;502;48.746;9.214;2023-09-18T05:16:19;6.57;;;2.77;;
1026;SDS011;502;48.746;9.214;2023-09-18T05:18:45;6.57;;;2.67;;
1026;SDS011;502;48.746;9.214;2023-09-18T05:21:12;7.17;;;3.20;;
1026;SDS011;502;48.746;9.214;2023-09-18T05:23:40;4.80;;;3.50;;
1026;SDS011;502;48.746;9.214;2023-09-18T05:26:06;7.97;;;3.33;;
1026;SDS011;502;48.746;9.214;2023-09-18T05:28:33;5.30;;;3.23;;
1026;SDS011;502;48.746;9.214;2023-09-18T05:30:59;8.30;;;2.97;;
1026;SDS011;502;48.746;9.214;2023-09-18T05:33:26;4.27;;;2.80;;
1026;SDS011;502;48.746;9.214;2023-09-18T05:35:53;4.87;;;3.07;;
1026;SDS011;502;48.746;9.214;2023-09-18T05:38:20;5.70;;;3.70;;
1026;SDS011;502;48.746;9.214;2023-09-18T05:40:48;6.57;;;3.73;;
1026;SDS011;502;48.746;9.214;2023-09-18T05:43:15;4.87;;;3.00;;
1026;SDS011;502;48.746;9.214;2023-09-18T05:45:41;4.50;;;3.30;;
1026;SDS011;502;48.746;9.214;2023-09-18T05:48:08;6.53;;;3.13;;
1026;SDS011;502;48.746;9.214;2023-09-18T05:50:35;6.43;;;3.40;;
1026;SDS011;502;48.746;9.214;2023-09-18T05:53:02;4.03;;;3.17;;
1026;SDS011;502;48.746;9.214;2023-09-18T05:55:30;9.57;;;3.47;;
1026;SDS011;502;48.746;9.214;2023-09-18T05:57:58;6.90;;;2.83;;
1026;SDS011;502;48.746;9.214;2023-09-18T06:00:25;8.43;;;3.87;;
1026;SDS011;502;48.746;9.214;2023-09-18T06:02:51;10.50;;;4.40;;
1026;SDS011;502;48.746;9.214;2023-09-18T06:05:18;8.37;;;3.57;;
1026;SDS011;502;48.746;9.214;2023-09-18T06:07:46;5.50;;;2.97;;
1026;SDS011;502;48.746;9.214;2023-09-18T06:10:13;5.87;;;2.70;;
1026;SDS011;502;48.746;9.214;2023-09-18T06:12:40;10.30;;;2.60;;
1026;SDS011;502;48.746;9.214;2023-09-18T06:15:08;5.97;;;2.77;;
1026;SDS011;502;48.746;9.214;2023-09-18T06:17:37;4.27;;;3.03;;
1026;SDS011;502;48.746;9.214;2023-09-18T06:20:05;5.33;;;2.67;;
1026;SDS011;502;48.746;9.214;2023-09-18T06:22:35;5.00;;;2.33;;
1026;SDS011;502;48.746;9.214;2023-09-18T06:25:03;3.60;;;2.67;;
1026;SDS011;502;48.746;9.214;2023-09-18T06:27:30;5.80;;;2.60;;
1026;SDS011;502;48.746;9.214;2023-09-18T06:29:57;4.63;;;2.80;;
1026;SDS011;502;48.746;9.214;2023-09-18T06:32:25;5.17;;;2.83;;
1026;SDS011;502;48.746;9.214;2023-09-18T06:34:52;7.03;;;2.77;;
1026;SDS011;502;48.746;9.214;2023-09-18T06:37:18;4.67;;;2.70;;
1026;SDS011;502;48.746;9.214;2023-09-18T06:39:45;3.63;;;2.60;;
1026;SDS011;502;48.746;9.214;2023-09-18T06:42:12;5.07;;;2.47;;
1026;SDS011;502;48.746;9.214;2023-09-18T06:44:38;4.63;;;2.77;;
1026;SDS011;502;48.746;9.214;2023-09-18T06:47:06;7.77;;;3.50;;
1026;SDS011;502;48.746;9.214;2023-09-18T06:49:34;7.03;;;2.77;;
1026;SDS011;502;48.746;9.214;2023-09-18T06:52:00;6.30;;;2.83;;
1026;SDS011;502;48.746;9.214;2023-09-18T06:54:27;5.63;;;2.63;;
1026;SDS011;502;48.746;9.214;2023-09-18T06:56:54;4.33;;;2.87;;
1026;SDS011;502;48.746;9.214;2023-09-18T06:59:20;9.70;;;2.90;;
1026;SDS011;502;48.746;9.214;2023-09-18T07:01:47;5.63;;;2.70;;
1026;SDS011;502;48.746;9.214;2023-09-18T07:04:13;4.10;;;2.77;;
1026;SDS011;502;48.746;9.214;2023-09-18T07:09:25;7.37;;;2.90;;
1026;SDS011;502;48.746;9.214;2023-09-18T07:11:51;6.60;;;2.30;;
1026;SDS011;502;48.746;9.214;2023-09-18T07:14:18;6.00;;;2.73;;
1026;SDS011;502;48.746;9.214;2023-09-18T07:16:44;4.33;;;2.43;;
1026;SDS011;502;48.746;9.214;2023-09-18T07:19:11;6.00;;;2.43;;
1026;SDS011;502;48.746;9.214;2023-09-18T07:21:41;6.37;;;2.73;;
1026;SDS011;502;48.746;9.214;2023-09-18T07:24:10;3.70;;;2.00;;
1026;SDS011;502;48.746;9.214;2023-09-18T07:26:43;9.20;;;2.23;;
1026;SDS011;502;48.746;9.214;2023-09-18T07:29:10;3.80;;;2.30;;
1026;SDS011;502;48.746;9.214;2023-09-18T07:31:36;4.80;;;1.87;;
1026;SDS011;502;48.746;9.214;2023-09-18T07:34:03;5.03;;;2.37;;
1026;SDS011;502;48.746;9.214;2023-09-18T07:36:30;3.50;;;1.50;;
1026;SDS011;502;48.746;9.214;2023-09-18T07:38:57;3.03;;;1.40;;
1026;SDS011;502;48.746;9.214;2023-09-18T07:41:25;4.10;;;1.57;;
1026;SDS011;502;48.746;9.214;2023-09-18T07:43:51;4.23;;;1.70;;
1026;SDS011;502;48.746;9.214;2023-09-18T07:46:18;3.50;;;1.77;;
1026;SDS011;502;48.746;9.214;2023-09-18T07:48:45;3.43;;;1.50;;
1026;SDS011;502;48.746;9.214;2023-09-18T07:51:11;5.20;;;1.53;;
1026;SDS011;502;48.746;9.214;2023-09-18T07:53:39;1.70;;;1.20;;
1026;SDS011;502;48.746;9.214;2023-09-18T07:56:05;5.20;;;1.70;;
1026;SDS011;502;48.746;9.214;2023-09-18T07:58:33;4.87;;;1.40;;
1026;SDS011;502;48.746;9.214;2023-09-18T08:01:03;3.20;;;1.20;;
1026;SDS011;502;48.746;9.214;2023-09-18T08:03:31;3.23;;;1.40;;
1026;SDS011;502;48.746;9.214;2023-09-18T08:05:58;4.37;;;2.10;;
1026;SDS011;502;48.746;9.214;2023-09-18T08:08:24;4.03;;;0.97;;
1026;SDS011;502;48.746;9.214;2023-09-18T08:10:51;4.50;;;1.30;;
1026;SDS011;502;48.746;9.214;2023-09-18T08:13:18;2.83;;;1.07;;
1026;SDS011;502;48.746;9.214;2023-09-18T08:15:47;3.60;;;1.50;;
1026;SDS011;502;48.746;9.214;2023-09-18T08:18:13;3.30;;;1.60;;
1026;SDS011;502;48.746;9.214;2023-09-18T08:20:40;1.63;;;1.20;;
1026;SDS011;502;48.746;9.214;2023-09-18T08:23:07;4.73;;;1.37;;
1026;SDS011;502;48.746;9.214;2023-09-18T08:25:34;3.23;;;1.13;;
1026;SDS011;502;48.746;9.214;2023-09-18T08:28:02;3.40;;;0.93;;
1026;SDS011;502;48.746;9.214;2023-09-18T08:30:29;3.23;;;1.43;;
1026;SDS011;502;48.746;9.214;2023-09-18T08:32:57;2.40;;;1.40;;
1026;SDS011;502;48.746;9.214;2023-09-18T08:35:24;4.07;;;1.50;;
1026;SDS011;502;48.746;9.214;2023-09-18T08:37:54;2.43;;;0.97;;
1026;SDS011;502;48.746;9.214;2023-09-18T08:40:21;4.53;;;1.33;;
1026;SDS011;502;48.746;9.214;2023-09-18T08:42:49;5.70;;;0.93;;
1026;SDS011;502;48.746;9.214;2023-09-18T08:45:19;7.23;;;1.37;;
1026;SDS011;502;48.746;9.214;2023-09-18T08:47:49;2.40;;;1.10;;
1026;SDS011;502;48.746;9.214;2023-09-18T08:50:18;2.13;;;1.00;;
1026;SDS011;502;48.746;9.214;2023-09-18T08:52:46;2.50;;;1.20;;
1026;SDS011;502;48.746;9.214;2023-09-18T08:55:13;2.30;;;0.93;;
1026;SDS011;502;48.746;9.214;2023-09-18T08:57:40;1.50;;;1.00;;
1026;SDS011;502;48.746;9.214;2023-09-18T09:00:08;2.07;;;1.00;;
1026;SDS011;502;48.746;9.214;2023-09-18T09:02:41;2.10;;;1.10;;
1026;SDS011;502;48.746;9.214;2023-09-18T09:05:07;2.23;;;1.00;;
1026;SDS011;502;48.746;9.214;2023-09-18T09:07:35;2.07;;;0.80;;
1026;SDS011;502;48.746;9.214;2023-09-18T09:10:02;2.60;;;0.80;;
1026;SDS011;502;48.746;9.214;2023-09-18T09:12:51;1.53;;;1.03;;
1026;SDS011;502;48.746;9.214;2023-09-18T09:15:22;5.20;;;1.20;;
1026;SDS011;502;48.746;9.214;2023-09-18T09:17:50;1.73;;;0.90;;
1026;SDS011;502;48.746;9.214;2023-09-18T09:20:17;1.57;;;1.17;;
1026;SDS011;502;48.746;9.214;2023-09-18T09:22:46;3.10;;;1.17;;
1026;SDS011;502;48.746;9.214;2023-09-18T09:25:21;2.63;;;1.20;;
1026;SDS011;502;48.746;9.214;2023-09-18T09:27:48;3.30;;;1.10;;
1026;SDS011;502;48.746;9.214;2023-09-18T09:30:18;2.10;;;1.00;;
1026;SDS011;502;48.746;9.214;2023-09-18T09:32:47;2.77;;;1.23;;
1026;SDS011;502;48.746;9.214;2023-09-18T09:35:18;1.93;;;1.30;;
1026;SDS011;502;48.746;9.214;2023-09-18T09:37:48;2.80;;;1.30;;
1026;SDS011;502;48.746;9.214;2023-09-18T09:40:15;1.90;;;1.20;;
1026;SDS011;502;48.746;9.214;2023-09-18T09:42:42;2.00;;;0.90;;
1026;SDS011;502;48.746;9.214;2023-09-18T09:45:11;2.70;;;1.43;;
1026;SDS011;502;48.746;9.214;2023-09-18T09:47:39;2.57;;;1.10;;
1026;SDS011;502;48.746;9.214;2023-09-18T09:50:06;3.47;;;1.40;;
1026;SDS011;502;48.746;9.214;2023-09-18T09:52:34;2.13;;;1.20;;
1026;SDS011;502;48.746;9.214;2023-09-18T09:55:04;2.53;;;1.10;;
1026;SDS011;502;48.746;9.214;2023-09-18T09:57:46;2.40;;;1.40;;
1026;SDS011;502;48.746;9.214;2023-09-18T10:00:13;2.07;;;1.50;;
1026;SDS011;502;48.746;9.214;2023-09-18T10:02:53;1.90;;;1.67;;
1026;SDS011;502;48.746;9.214;2023-09-18T10:05:21;2.50;;;1.10;;
1026;SDS011;502;48.746;9.214;2023-09-18T10:07:49;3.33;;;1.47;;
1026;SDS011;502;48.746;9.214;2023-09-18T10:10:17;2.30;;;1.30;;
1026;SDS011;502;48.746;9.214;2023-09-18T10:12:43;2.50;;;1.70;;
1026;SDS011;502;48.746;9.214;2023-09-18T10:15:14;3.93;;;1.70;;
1026;SDS011;502;48.746;9.214;2023-09-18T10:17:42;1.70;;;1.20;;
1026;SDS011;502;48.746;9.214;2023-09-18T10:20:12;2.27;;;1.23;;
1026;SDS011;502;48.746;9.214;2023-09-18T10:22:45;2.83;;;1.40;;
1026;SDS011;502;48.746;9.214;2023-09-18T10:25:14;3.87;;;1.50;;
1026;SDS011;502;48.746;9.214;2023-09-18T10:27:43;2.93;;;1.90;;
1026;SDS011;502;48.746;9.214;2023-09-18T10:30:11;3.97;;;1.33;;
1026;SDS011;502;48.746;9.214;2023-09-18T10:32:39;3.20;;;1.33;;
1026;SDS011;502;48.746;9.214;2023-09-18T10:35:06;3.77;;;1.50;;
1026;SDS011;502;48.746;9.214;2023-09-18T10:37:34;3.03;;;1.23;;
1026;SDS011;502;48.746;9.214;2023-09-18T10:40:02;2.10;;;1.43;;
1026;SDS011;502;48.746;9.214;2023-09-18T10:42:32;2.17;;;1.30;;
1026;SDS011;502;48.746;9.214;2023-09-18T10:45:00;1.97;;;1.50;;
1026;SDS011;502;48.746;9.214;2023-09-18T10:47:29;2.50;;;1.43;;
1026;SDS011;502;48.746;9.214;2023-09-18T10:49:57;2.43;;;1.70;;
1026;SDS011;502;48.746;9.214;2023-09-18T10:52:23;2.30;;;1.50;;
1026;SDS011;502;48.746;9.214;2023-09-18T10:54:50;5.40;;;1.97;;
1026;SDS011;502;48.746;9.214;2023-09-18T10:57:17;2.83;;;1.10;;
1026;SDS011;502;48.746;9.214;2023-09-18T10:59:44;4.03;;;1.47;;
1026;SDS011;502;48.746;9.214;2023-09-18T11:02:14;2.20;;;1.17;;
1026;SDS011;502;48.746;9.214;2023-09-18T11:04:41;2.00;;;1.23;;
1026;SDS011;502;48.746;9.214;2023-09-18T11:07:08;2.80;;;1.43;;
1026;SDS011;502;48.746;9.214;2023-09-18T11:09:40;2.30;;;1.20;;
1026;SDS011;502;48.746;9.214;2023-09-18T11:12:08;2.80;;;1.60;;
1026;SDS011;502;48.746;9.214;2023-09-18T11:14:46;3.87;;;1.30;;
1026;SDS011;502;48.746;9.214;2023-09-18T11:17:31;2.43;;;1.23;;
1026;SDS011;502;48.746;9.214;2023-09-18T11:20:10;3.87;;;1.73;;
1026;SDS011;502;48.746;9.214;2023-09-18T11:22:46;2.80;;;1.50;;
1026;SDS011;502;48.746;9.214;2023-09-18T11:25:28;2.47;;;1.40;;
1026;SDS011;502;48.746;9.214;2023-09-18T11:28:05;1.80;;;1.13;;
1026;SDS011;502;48.746;9.214;2023-09-18T11:30:33;2.03;;;1.17;;
1026;SDS011;502;48.746;9.214;2023-09-18T11:33:03;1.80;;;1.20;;
1026;SDS011;502;48.746;9.214;2023-09-18T11:35:31;4.17;;;1.47;;
1026;SDS011;502;48.746;9.214;2023-09-18T11:38:05;1.97;;;1.27;;
1026;SDS011;502;48.746;9.214;2023-09-18T11:40:33;2.47;;;1.20;;
1026;SDS011;502;48.746;9.214;2023-09-18T11:43:22;2.37;;;1.10;;
1026;SDS011;502;48.746;9.214;2023-09-18T11:45:50;3.47;;;1.40;;
1026;SDS011;502;48.746;9.214;2023-09-18T11:48:20;2.07;;;1.27;;
1026;SDS011;502;48.746;9.214;2023-09-18T11:50:48;3.73;;;1.00;;
1026;SDS011;502;48.746;9.214;2023-09-18T11:53:16;2.00;;;1.17;;
1026;SDS011;502;48.746;9.214;2023-09-18T11:55:43;6.97;;;1.47;;
1026;SDS011;502;48.746;9.214;2023-09-18T11:58:10;2.60;;;1.47;;
1026;SDS011;502;48.746;9.214;2023-09-18T12:00:36;2.30;;;1.10;;
1026;SDS011;502;48.746;9.214;2023-09-18T12:03:17;2.00;;;1.00;;
1026;SDS011;502;48.746;9.214;2023-09-18T12:05:52;2.00;;;1.00;;
1026;SDS011;502;48.746;9.214;2023-09-18T12:08:21;1.60;;;1.10;;
1026;SDS011;502;48.746;9.214;2023-09-18T12:10:48;2.60;;;1.10;;
1026;SDS011;502;48.746;9.214;2023-09-18T12:13:16;3.53;;;1.47;;
1026;SDS011;502;48.746;9.214;2023-09-18T12:15:43;2.40;;;1.27;;
1026;SDS011;502;48.746;9.214;2023-09-18T12:18:09;3.20;;;1.20;;
1026;SDS011;502;48.746;9.214;2023-09-18T12:20:38;3.00;;;1.30;;
1026;SDS011;502;48.746;9.214;2023-09-18T12:23:11;2.67;;;1.00;;
1026;SDS011;502;48.746;9.214;2023-09-18T12:25:38;2.57;;;1.20;;
1026;SDS011;502;48.746;9.214;2023-09-18T12:28:05;2.23;;;1.23;;
1026;SDS011;502;48.746;9.214;2023-09-18T12:30:32;1.87;;;1.33;;
1026;SDS011;502;48.746;9.214;2023-09-18T12:32:59;3.30;;;1.20;;
1026;SDS011;502;48.746;9.214;2023-09-18T12:35:25;2.33;;;1.40;;
1026;SDS011;502;48.746;9.214;2023-09-18T12:37:56;2.63;;;1.60;;
1026;SDS011;502;48.746;9.214;2023-09-18T12:40:23;1.97;;;1.13;;
1026;SDS011;502;48.746;9.214;2023-09-18T12:42:50;2.17;;;1.30;;
1026;SDS011;502;48.746;9.214;2023-09-18T12:45:18;2.90;;;1.53;;
1026;SDS011;502;48.746;9.214;2023-09-18T12:47:45;2.10;;;1.30;;
1026;SDS011;502;48.746;9.214;2023-09-18T12:50:12;3.50;;;1.37;;
1026;SDS011;502;48.746;9.214;2023-09-18T12:52:39;1.70;;;1.50;;
1026;SDS011;502;48.746;9.214;2023-09-18T12:55:07;2.23;;;1.07;;
1026;SDS011;502;48.746;9.214;2023-09-18T12:57:34;2.10;;;1.47;;
1026;SDS011;502;48.746;9.214;2023-09-18T13:00:07;3.77;;;1.60;;
1026;SDS011;502;48.746;9.214;2023-09-18T13:02:36;1.70;;;1.27;;
1026;SDS011;502;48.746;9.214;2023-09-18T13:05:04;3.60;;;1.40;;
1026;SDS011;502;48.746;9.214;2023-09-18T13:07:31;4.97;;;1.90;;
1026;SDS011;502;48.746;9.214;2023-09-18T13:10:11;3.87;;;1.43;;
1026;SDS011;502;48.746;9.214;2023-09-18T13:12:39;3.17;;;1.40;;
1026;SDS011;502;48.746;9.214;2023-09-18T13:15:06;2.50;;;1.13;;
1026;SDS011;502;48.746;9.214;2023-09-18T13:17:37;4.60;;;1.17;;
1026;SDS011;502;48.746;9.214;2023-09-18T13:20:14;4.13;;;1.50;;
1026;SDS011;502;48.746;9.214;2023-09-18T13:22:42;3.87;;;1.60;;
1026;SDS011;502;48.746;9.214;2023-09-18T13:25:09;3.53;;;1.57;;
1026;SDS011;502;48.746;9.214;2023-09-18T13:27:37;1.90;;;1.07;;
1026;SDS011;502;48.746;9.214;2023-09-18T13:30:04;2.13;;;1.10;;
1026;SDS011;502;48.746;9.214;2023-09-18T13:32:36;3.30;;;1.50;;
1026;SDS011;502;48.746;9.214;2023-09-18T13:35:03;1.60;;;1.00;;
1026;SDS011;502;48.746;9.214;2023-09-18T13:37:31;1.60;;;1.10;;
1026;SDS011;502;48.746;9.214;2023-09-18T13:39:58;2.00;;;1.50;;
1026;SDS011;502;48.746;9.214;2023-09-18T13:42:28;3.63;;;1.30;;
1026;SDS011;502;48.746;9.214;2023-09-18T13:44:56;2.60;;;1.27;;
1026;SDS011;502;48.746;9.214;2023-09-18T13:47:25;2.77;;;1.30;;
1026;SDS011;502;48.746;9.214;2023-09-18T13:49:53;6.53;;;1.30;;
1026;SDS011;502;48.746;9.214;2023-09-18T13:52:22;2.63;;;1.40;;
1026;SDS011;502;48.746;9.214;2023-09-18T13:54:48;2.23;;;1.10;;
1026;SDS011;502;48.746;9.214;2023-09-18T13:57:16;2.03;;;1.20;;
1026;SDS011;502;48.746;9.214;2023-09-18T13:59:45;2.70;;;1.50;;
1026;SDS011;502;48.746;9.214;2023-09-18T14:02:12;1.90;;;1.13;;
1026;SDS011;502;48.746;9.214;2023-09-18T14:04:39;6.23;;;1.20;;
1026;SDS011;502;48.746;9.214;2023-09-18T14:07:05;3.83;;;1.13;;
1026;SDS011;502;48.746;9.214;2023-09-18T14:09:32;4.17;;;1.27;;
1026;SDS011;502;48.746;9.214;2023-09-18T14:11:58;3.57;;;1.30;;
1026;SDS011;502;48.746;9.214;2023-09-18T14:14:25;4.73;;;1.53;;
1026;SDS011;502;48.746;9.214;2023-09-18T14:16:53;2.23;;;1.37;;
1026;SDS011;502;48.746;9.214;2023-09-18T14:19:20;1.47;;;1.13;;
1026;SDS011;502;48.746;9.214;2023-09-18T14:21:47;1.67;;;1.17;;
1026;SDS011;502;48.746;9.214;2023-09-18T14:24:15;2.07;;;1.27;;
1026;SDS011;502;48.746;9.214;2023-09-18T14:26:43;3.03;;;1.50;;
1026;SDS011;502;48.746;9.214;2023-09-18T14:29:09;3.77;;;1.47;;
1026;SDS011;502;48.746;9.214;2023-09-18T14:31:37;1.80;;;1.20;;
1026;SDS011;502;48.746;9.214;2023-09-18T14:34:05;1.63;;;1.33;;
1026;SDS011;502;48.746;9.214;2023-09-18T14:36:31;2.10;;;0.93;;
1026;SDS011;502;48.746;9.214;2023-09-18T14:38:58;2.30;;;1.20;;
1026;SDS011;502;48.746;9.214;2023-09-18T14:41:25;3.77;;;1.03;;
1026;SDS011;502;48.746;9.214;2023-09-18T14:43:52;2.60;;;1.10;;
1026;SDS011;502;48.746;9.214;2023-09-18T14:46:18;1.97;;;1.33;;
1026;SDS011;502;48.746;9.214;2023-09-18T14:48:46;2.77;;;1.30;;
1026;SDS011;502;48.746;9.214;2023-09-18T14:51:14;2.20;;;1.37;;
1026;SDS011;502;48.746;9.214;2023-09-18T14:53:40;1.90;;;1.17;;
1026;SDS011;502;48.746;9.214;2023-09-18T14:56:07;2.80;;;1.33;;
1026;SDS011;502;48.746;9.214;2023-09-18T14:58:39;1.23;;;1.00;;
1026;SDS011;502;48.746;9.214;2023-09-18T15:01:06;1.67;;;1.13;;
1026;SDS011;502;48.746;9.214;2023-09-18T15:03:33;2.13;;;1.33;;
1026;SDS011;502;48.746;9.214;2023-09-18T15:05:59;1.40;;;0.97;;
1026;SDS011;502;48.746;9.214;2023-09-18T15:08:29;2.03;;;1.37;;
1026;SDS011;502;48.746;9.214;2023-09-18T15:10:55;1.50;;;1.10;;
1026;SDS011;502;48.746;9.214;2023-09-18T15:13:22;1.60;;;1.20;;
1026;SDS011;502;48.746;9.214;2023-09-18T15:15:49;4.40;;;1.20;;
1026;SDS011;502;48.746;9.214;2023-09-18T15:18:15;1.70;;;1.20;;
1026;SDS011;502;48.746;9.214;2023-09-18T15:20:42;1.80;;;1.37;;
1026;SDS011;502;48.746;9.214;2023-09-18T15:23:09;2.43;;;1.23;;
1026;SDS011;502;48.746;9.214;2023-09-18T15:25:37;2.30;;;1.43;;
1026;SDS011;502;48.746;9.214;2023-09-18T15:28:06;3.00;;;1.33;;
1026;SDS011;502;48.746;9.214;2023-09-18T15:30:32;5.87;;;1.53;;
1026;SDS011;502;48.746;9.214;2023-09-18T15:33:01;2.10;;;1.20;;
1026;SDS011;502;48.746;9.214;2023-09-18T15:35:28;2.73;;;1.20;;
1026;SDS011;502;48.746;9.214;2023-09-18T15:37:54;3.70;;;1.10;;